Time;durP1;ratioP1;P1;durP2;ratioP2;P2;SDS_P1;SDS_P2;PMS_P1;PMS_P2;Temp;Humidity;BMP_temperature;BMP_pressure;BME280_temperature;BME280_humidity;BME280_pressure;Samples;Min_cycle;Max_cycle;Signal;HPM_P1;HPM_P2
2022/05/01 00:01:01;;;;;;;;;11.00;9.00;;;;;11.14;50.88;102277.25;5029906;28;50763;-67
2022/05/01 00:03:36;;;;;;;;;12.75;11.75;;;;;11.21;51.02;102274.06;5030020;28;49716;-68
2022/05/01 00:06:04;;;;;;;;;10.75;9.50;;;;;11.00;50.97;102247.78;5029733;28;49631;-64
2022/05/01 00:08:30;;;;;;;;;15.50;12.00;;;;;11.11;51.03;102277.13;5029248;28;49725;-64
2022/05/01 00:10:56;;;;;;;;;10.00;9.00;;;;;10.86;51.39;102255.03;5029244;28;50915;-67
2022/05/01 00:13:22;;;;;;;;;13.50;13.25;;;;;11.01;51.40;102273.22;5029701;28;49789;-63
2022/05/01 00:15:48;;;;;;;;;9.75;8.50;;;;;11.07;51.51;102289.22;5029822;28;49709;-68
2022/05/01 00:18:14;;;;;;;;;11.00;10.25;;;;;10.92;51.28;102253.53;5029880;28;49904;-65
2022/05/01 00:20:40;;;;;;;;;9.50;9.25;;;;;11.10;51.68;102301.63;5029531;28;50986;-63
2022/05/01 00:23:05;;;;;;;;;11.50;11.50;;;;;10.99;51.56;102268.69;5029433;28;49666;-64
2022/05/01 00:25:31;;;;;;;;;9.75;9.75;;;;;10.96;51.51;102273.84;5029452;28;49788;-67
2022/05/01 00:27:57;;;;;;;;;14.25;10.25;;;;;11.01;51.99;102269.69;5029537;28;49646;-63
2022/05/01 00:30:22;;;;;;;;;15.50;11.50;;;;;10.99;51.48;102248.56;5029442;28;50422;-66
2022/05/01 00:38:15;;;;;;;;;14.00;12.50;;;;;10.83;51.65;102244.41;5029460;28;49718;-63
2022/05/01 00:40:41;;;;;;;;;10.00;10.00;;;;;10.94;51.75;102265.88;5029262;28;53780;-67
2022/05/01 00:43:06;;;;;;;;;14.00;14.00;;;;;10.71;52.29;102232.44;5030412;28;49646;-67
2022/05/01 00:45:32;;;;;;;;;17.50;14.25;;;;;10.91;51.85;102255.25;5032686;28;49631;-67
2022/05/01 00:47:57;;;;;;;;;9.75;8.00;;;;;10.84;51.77;102251.47;5032956;28;49822;-63
2022/05/01 00:50:24;;;;;;;;;8.25;8.00;;;;;10.78;52.48;102259.06;5032656;28;49843;-63
2022/05/01 00:52:50;;;;;;;;;9.75;8.75;;;;;10.38;52.16;102201.28;5032594;28;49694;-67
2022/05/01 00:55:16;;;;;;;;;14.00;14.00;;;;;10.77;52.16;102266.88;5032647;28;49760;-66
2022/05/01 00:57:44;;;;;;;;;12.50;12.50;;;;;10.64;53.27;102264.56;5033014;28;49632;-65
2022/05/01 01:00:10;;;;;;;;;8.00;8.00;;;;;10.54;52.89;102243.13;5032540;28;49876;-64
2022/05/01 01:02:37;;;;;;;;;10.00;10.00;;;;;10.09;52.74;102164.91;5032544;28;50023;-67
2022/05/01 01:05:03;;;;;;;;;13.00;9.75;;;;;10.60;52.86;102248.63;5032367;28;49974;-66
2022/05/01 01:07:28;;;;;;;;;10.25;9.00;;;;;10.39;52.86;102213.56;5014743;28;49836;-64
2022/05/01 01:09:53;;;;;;;;;10.00;10.00;;;;;10.58;53.07;102245.06;5031867;28;50660;-67
2022/05/01 01:15:09;;;;;;;;;14.00;10.75;;;;;10.58;53.50;102252.03;5032326;28;49679;-63
2022/05/01 01:17:41;;;;;;;;;12.25;12.25;;;;;10.49;53.52;102256.88;5032453;28;49722;-67
2022/05/01 01:20:13;;;;;;;;;14.00;11.25;;;;;10.57;53.66;102260.75;5032040;28;50747;-67
2022/05/01 01:22:44;;;;;;;;;17.00;15.75;;;;;10.49;54.02;102257.78;5032219;28;49894;-63
2022/05/01 01:25:13;;;;;;;;;13.50;13.25;;;;;10.54;53.25;102258.00;5031931;28;49829;-67
2022/05/01 01:27:39;;;;;;;;;13.75;11.50;;;;;10.39;53.92;102246.78;5032338;28;49802;-64
2022/05/01 01:32:50;;;;;;;;;12.75;12.75;;;;;10.50;54.13;102258.66;5032097;28;49789;-64
2022/05/01 01:35:18;;;;;;;;;11.25;10.00;;;;;10.40;53.81;102245.97;5032021;28;49790;-65
2022/05/01 01:37:47;;;;;;;;;13.75;12.75;;;;;10.46;54.10;102251.50;5032039;28;49770;-68
2022/05/01 01:40:21;;;;;;;;;13.00;11.00;;;;;9.92;54.38;102174.63;5031545;28;50124;-66
2022/05/01 01:42:49;;;;;;;;;12.75;11.00;;;;;10.44;54.41;102255.78;5013868;28;49982;-65
2022/05/01 01:45:15;;;;;;;;;13.75;10.75;;;;;10.44;54.76;102253.16;5032126;28;49910;-66
2022/05/01 01:47:42;;;;;;;;;16.25;15.00;;;;;10.35;53.94;102240.53;5032089;28;49857;-65
2022/05/01 01:50:09;;;;;;;;;15.75;13.50;;;;;10.39;54.43;102238.91;5031794;28;49801;-66
2022/05/01 01:52:35;;;;;;;;;10.25;9.75;;;;;10.30;54.89;102240.28;5031925;28;49968;-67
2022/05/01 01:55:00;;;;;;;;;13.50;13.50;;;;;10.34;54.96;102256.19;5030090;28;49613;-63
2022/05/01 01:57:26;;;;;;;;;16.00;12.50;;;;;10.32;54.40;102261.34;5031819;28;49852;-68
2022/05/01 01:59:51;;;;;;;;;14.00;12.75;;;;;10.31;54.65;102239.47;5031546;28;50504;-67
2022/05/01 02:02:17;;;;;;;;;9.50;9.50;;;;;10.28;55.02;102212.19;5031670;28;49732;-67
2022/05/01 02:04:42;;;;;;;;;13.25;12.00;;;;;10.31;54.78;102228.06;5031731;28;49686;-67
2022/05/01 02:07:07;;;;;;;;;20.50;15.00;;;;;10.36;55.13;102234.44;5031579;28;49927;-64
2022/05/01 02:09:37;;;;;;;;;13.75;10.25;;;;;10.38;54.90;102224.91;5031008;28;49866;-64
2022/05/01 02:12:05;;;;;;;;;16.00;15.25;;;;;10.31;54.76;102243.81;5031338;28;49668;-67
2022/05/01 02:14:31;;;;;;;;;12.25;12.25;;;;;10.29;55.21;102225.38;5031499;28;49757;-64
2022/05/01 02:16:57;;;;;;;;;13.25;11.50;;;;;10.23;55.61;102233.00;5031508;28;49781;-64
2022/05/01 02:19:22;;;;;;;;;17.50;15.75;;;;;10.19;55.53;102233.63;5031213;28;51053;-64
2022/05/01 02:21:47;;;;;;;;;21.25;15.00;;;;;10.10;55.83;102229.69;5031303;28;49653;-64
2022/05/01 02:24:13;;;;;;;;;16.50;16.50;;;;;10.15;55.61;102238.69;5031134;28;49694;-68
2022/05/01 02:26:39;;;;;;;;;13.25;13.25;;;;;10.07;55.95;102225.19;5031391;28;50368;-67
2022/05/01 02:29:09;;;;;;;;;15.00;14.00;;;;;9.97;55.63;102216.00;5030690;28;50403;-67
2022/05/01 02:31:37;;;;;;;;;13.00;10.75;;;;;10.00;55.97;102218.75;5031219;28;49596;-64
2022/05/01 02:34:03;;;;;;;;;14.25;14.00;;;;;10.17;55.59;102230.03;5031092;28;49752;-67
2022/05/01 02:36:29;;;;;;;;;19.50;18.25;;;;;10.08;56.14;102216.50;5031320;28;49846;-65
2022/05/01 02:38:54;;;;;;;;;15.50;15.50;;;;;10.16;55.81;102224.72;5030616;28;49960;-64
2022/05/01 02:41:20;;;;;;;;;18.50;14.75;;;;;10.17;56.32;102216.91;5031021;28;49690;-64
2022/05/01 02:43:46;;;;;;;;;18.00;15.50;;;;;10.06;56.51;102191.91;5031095;28;49886;-68
2022/05/01 02:46:12;;;;;;;;;20.50;17.75;;;;;10.28;55.97;102235.81;5030973;28;49817;-66
2022/05/01 02:48:37;;;;;;;;;17.50;17.25;;;;;10.20;55.98;102217.03;5030861;28;50537;-67
2022/05/01 02:51:04;;;;;;;;;15.25;14.00;;;;;10.28;56.50;102233.19;5030801;28;49721;-63
2022/05/01 02:53:31;;;;;;;;;15.75;15.75;;;;;10.16;56.64;102217.75;5030504;28;49844;-67
2022/05/01 02:56:00;;;;;;;;;16.00;15.00;;;;;10.14;55.83;102208.91;5030841;28;49879;-67
2022/05/01 02:58:26;;;;;;;;;17.25;15.25;;;;;10.17;56.39;102219.53;5030728;28;49845;-64
2022/05/01 03:00:51;;;;;;;;;16.50;16.00;;;;;10.12;56.25;102199.16;5012715;28;49898;-68
2022/05/01 03:03:17;;;;;;;;;18.50;14.25;;;;;10.11;56.26;102202.59;5030714;28;49980;-67
2022/05/01 03:05:42;;;;;;;;;17.00;16.50;;;;;10.06;56.24;102199.78;5030360;28;49833;-68
2022/05/01 03:08:07;;;;;;;;;15.00;15.00;;;;;10.07;56.22;102198.97;5030049;28;49802;-66
2022/05/01 03:10:33;;;;;;;;;14.75;14.00;;;;;9.94;56.75;102175.59;5030333;28;49944;-67
2022/05/01 03:12:58;;;;;;;;;22.00;21.00;;;;;10.06;57.32;102205.03;5030661;28;49851;-63
2022/05/01 03:15:24;;;;;;;;;17.00;14.50;;;;;9.98;56.89;102203.78;5012844;28;50048;-64
2022/05/01 03:23:17;;;;;;;;;16.50;15.75;;;;;10.02;57.36;102210.97;5030399;28;50056;-64
2022/05/01 03:25:42;;;;;;;;;18.00;16.75;;;;;9.88;57.51;102188.44;5030535;28;49798;-67
2022/05/01 03:28:08;;;;;;;;;16.25;16.25;;;;;9.83;58.20;102187.31;5029997;28;49777;-65
2022/05/01 03:30:34;;;;;;;;;20.00;16.00;;;;;9.79;58.18;102185.41;5030266;28;49779;-64
2022/05/01 03:32:59;;;;;;;;;21.00;15.75;;;;;9.85;58.37;102197.09;5030148;28;49699;-66
2022/05/01 03:35:25;;;;;;;;;18.50;15.50;;;;;9.85;58.58;102193.56;5030790;28;49834;-65
2022/05/01 03:37:50;;;;;;;;;25.50;22.75;;;;;9.89;58.03;102195.50;5029805;28;49770;-65
2022/05/01 03:40:16;;;;;;;;;17.50;17.50;;;;;9.81;58.62;102181.13;5030222;28;50206;-64
2022/05/01 03:42:42;;;;;;;;;21.25;20.25;;;;;9.83;58.29;102188.22;5030340;28;49693;-63
2022/05/01 03:45:09;;;;;;;;;19.75;15.75;;;;;9.72;58.20;102169.38;5030214;28;49834;-67
2022/05/01 03:47:34;;;;;;;;;21.75;18.00;;;;;9.75;59.08;102198.38;5029863;28;50790;-66
2022/05/01 03:50:00;;;;;;;;;18.25;18.25;;;;;9.62;59.09;102169.75;5030143;28;49752;-66
2022/05/01 03:52:25;;;;;;;;;20.50;20.25;;;;;9.67;58.79;102176.13;5030082;28;50413;-64
2022/05/01 03:54:51;;;;;;;;;18.50;17.75;;;;;9.68;58.45;102180.56;5030042;28;49747;-66
2022/05/01 03:57:16;;;;;;;;;20.75;18.75;;;;;9.71;58.50;102185.94;5011992;28;50893;-64
2022/05/01 03:59:41;;;;;;;;;16.25;15.00;;;;;9.66;59.26;102178.69;5030093;28;49781;-66
2022/05/01 04:02:07;;;;;;;;;23.00;19.50;;;;;9.67;58.42;102180.50;5029955;28;49933;-67
2022/05/01 04:04:32;;;;;;;;;15.75;15.00;;;;;9.60;58.49;102166.19;5011989;28;49953;-67
2022/05/01 04:06:57;;;;;;;;;22.00;19.50;;;;;9.74;58.37;102179.94;5029668;28;49632;-67
2022/05/01 04:09:24;;;;;;;;;19.00;16.00;;;;;9.68;58.91;102164.81;5029505;28;49967;-66
2022/05/01 04:11:51;;;;;;;;;28.50;20.50;;;;;9.84;58.74;102192.63;5029869;28;49730;-67
2022/05/01 04:14:17;;;;;;;;;19.50;17.50;;;;;9.71;58.09;102172.81;5030087;28;49593;-64
2022/05/01 04:16:43;;;;;;;;;19.00;19.00;;;;;9.80;58.73;102185.47;5029453;28;50678;-67
2022/05/01 04:19:10;;;;;;;;;26.75;24.75;;;;;9.56;59.07;102155.50;5032292;28;49978;-64
2022/05/01 04:21:37;;;;;;;;;21.00;18.50;;;;;9.66;59.33;102171.72;5033187;28;49611;-64
2022/05/01 04:24:02;;;;;;;;;20.25;19.25;;;;;9.72;59.60;102190.34;5033212;28;49729;-68
2022/05/01 04:26:28;;;;;;;;;25.25;23.00;;;;;9.54;59.32;102154.50;5033097;28;49974;-65
2022/05/01 04:31:37;;;;;;;;;17.50;17.00;;;;;9.69;59.00;102173.59;5032729;28;49935;-67
2022/05/01 04:34:02;;;;;;;;;19.75;18.25;;;;;9.70;59.86;102178.91;5033144;28;49867;-64
2022/05/01 04:36:27;;;;;;;;;20.25;17.50;;;;;9.54;59.39;102167.59;5032733;28;50633;-63
2022/05/01 04:38:53;;;;;;;;;27.25;23.50;;;;;9.64;59.42;102175.06;5032659;28;49958;-64
2022/05/01 04:41:19;;;;;;;;;25.00;24.00;;;;;9.61;59.31;102167.97;5032706;28;50060;-62
2022/05/01 04:43:44;;;;;;;;;31.00;23.25;;;;;9.56;60.09;102159.00;5032874;28;50006;-67
2022/05/01 04:46:09;;;;;;;;;21.00;21.00;;;;;9.67;59.84;102194.50;5032289;28;49825;-65
2022/05/01 04:48:35;;;;;;;;;21.75;20.75;;;;;9.57;59.83;102158.19;5033007;28;49744;-64
2022/05/01 04:51:00;;;;;;;;;25.25;23.00;;;;;9.59;59.83;102161.78;5032727;28;50477;-67
2022/05/01 04:53:26;;;;;;;;;19.75;19.75;;;;;9.76;59.76;102183.53;5032457;28;50000;-66
2022/05/01 04:55:54;;;;;;;;;20.75;20.00;;;;;9.86;59.02;102187.50;5032286;28;49936;-63
2022/05/01 04:58:20;;;;;;;;;22.50;21.75;;;;;9.69;59.02;102155.22;5032288;28;49861;-64
2022/05/01 05:00:46;;;;;;;;;27.25;27.25;;;;;9.64;59.21;102138.38;5032386;28;49949;-67
2022/05/01 05:03:12;;;;;;;;;24.50;23.00;;;;;10.03;59.02;102203.16;5032373;28;50241;-66
2022/05/01 05:05:38;;;;;;;;;21.25;20.00;;;;;10.00;59.14;102187.28;5032209;28;51334;-66
2022/05/01 05:10:49;;;;;;;;;25.50;21.25;;;;;10.07;58.32;102206.84;5031953;28;49860;-65
2022/05/01 05:13:21;;;;;;;;;25.00;24.00;;;;;10.02;58.76;102211.84;5032335;28;49885;-65
2022/05/01 05:15:47;;;;;;;;;24.00;23.50;;;;;10.00;58.51;102199.50;5031699;28;49933;-65
2022/05/01 05:18:13;;;;;;;;;23.50;20.50;;;;;10.11;58.42;102200.00;5032379;28;49762;-69
2022/05/01 05:20:38;;;;;;;;;24.75;20.50;;;;;10.26;58.24;102203.34;5032180;28;49967;-64
2022/05/01 05:23:03;;;;;;;;;21.25;19.00;;;;;10.07;57.80;102163.97;5031997;28;49947;-64
2022/05/01 05:25:29;;;;;;;;;20.25;19.75;;;;;10.22;58.33;102181.31;5032004;28;50812;-67
2022/05/01 05:27:54;;;;;;;;;24.50;24.50;;;;;10.45;57.76;102210.31;5032058;28;49690;-67
2022/05/01 05:30:20;;;;;;;;;20.50;19.75;;;;;10.34;57.58;102187.97;5031547;28;49734;-65
2022/05/01 05:32:45;;;;;;;;;21.00;16.75;;;;;10.49;58.39;102193.88;5031656;28;49524;-66
2022/05/01 05:35:10;;;;;;;;;15.50;13.50;;;;;10.45;57.19;102184.06;5031400;28;54128;-64
2022/05/01 05:37:36;;;;;;;;;22.75;20.00;;;;;10.51;57.54;102185.22;5031684;28;49690;-66
2022/05/01 05:40:01;;;;;;;;;19.75;19.00;;;;;10.69;57.25;102213.09;5031128;28;49727;-62
2022/05/01 05:42:26;;;;;;;;;21.25;20.25;;;;;10.46;56.51;102192.00;5031920;28;50090;-66
2022/05/01 05:44:52;;;;;;;;;23.00;17.00;;;;;10.58;56.74;102192.53;5031532;28;50404;-69
2022/05/01 05:47:17;;;;;;;;;21.00;20.25;;;;;10.60;56.85;102200.47;5031794;28;49949;-66
2022/05/01 05:49:43;;;;;;;;;23.75;21.75;;;;;10.61;56.42;102181.25;5031888;28;49678;-61
2022/05/01 05:52:08;;;;;;;;;27.25;21.25;;;;;10.78;57.01;102203.00;5031755;28;49949;-64
2022/05/01 05:54:33;;;;;;;;;19.75;19.25;;;;;10.79;56.57;102197.81;5030943;28;49786;-66
2022/05/01 05:56:59;;;;;;;;;20.50;17.50;;;;;10.76;56.95;102181.94;5031751;28;49977;-65
2022/05/01 05:59:24;;;;;;;;;33.75;27.25;;;;;10.38;55.86;102112.00;5031889;28;49945;-62
2022/05/01 06:01:50;;;;;;;;;26.75;24.75;;;;;10.73;56.54;102165.16;5031431;28;49892;-65
2022/05/01 06:04:15;;;;;;;;;25.75;19.75;;;;;10.90;56.81;102193.00;5031506;28;50818;-62
2022/05/01 06:06:41;;;;;;;;;26.00;23.75;;;;;11.02;56.02;102190.91;5030882;28;49697;-66
2022/05/01 06:09:07;;;;;;;;;27.50;22.75;;;;;11.29;55.82;102203.38;5030777;28;49809;-64
2022/05/01 06:11:35;;;;;;;;;30.00;24.00;;;;;11.15;55.24;102160.78;5031486;28;49697;-66
2022/05/01 06:14:01;;;;;;;;;31.00;25.75;;;;;11.50;55.29;102195.47;5031280;28;50497;-67
2022/05/01 06:16:26;;;;;;;;;28.75;22.25;;;;;11.71;55.45;102220.00;5031059;28;49741;-66
2022/05/01 06:18:52;;;;;;;;;29.25;25.50;;;;;11.79;54.79;102197.53;5031119;28;49917;-65
2022/05/01 06:21:17;;;;;;;;;24.75;21.00;;;;;11.90;53.94;102200.59;5031251;28;50030;-65
2022/05/01 06:23:45;;;;;;;;;23.50;21.50;;;;;11.98;53.91;102180.72;5030699;28;49786;-65
2022/05/01 06:26:11;;;;;;;;;25.75;23.00;;;;;12.18;54.26;102186.72;5031047;28;49642;-67
2022/05/01 06:28:36;;;;;;;;;26.25;22.00;;;;;12.45;53.33;102206.19;5013226;28;49804;-67
2022/05/01 06:31:02;;;;;;;;;28.00;24.00;;;;;12.49;52.54;102194.00;5031455;28;49726;-64
2022/05/01 06:33:30;;;;;;;;;23.50;22.00;;;;;12.70;52.52;102210.56;5013152;28;51951;-66
2022/05/01 06:35:55;;;;;;;;;28.50;21.00;;;;;12.76;52.07;102213.41;5009756;28;49616;-66
2022/05/01 06:38:22;;;;;;;;;23.75;22.00;;;;;12.74;51.67;102193.09;5030499;28;49850;-66
2022/05/01 06:40:48;;;;;;;;;28.00;23.00;;;;;12.95;51.34;102214.06;5030536;28;50217;-65
2022/05/01 06:43:14;;;;;;;;;23.50;19.75;;;;;12.92;51.50;102198.13;5030572;28;50953;-65
2022/05/01 06:45:41;;;;;;;;;27.25;22.75;;;;;13.17;51.47;102220.09;5030659;28;49800;-65
2022/05/01 06:48:08;;;;;;;;;24.25;22.00;;;;;13.11;51.11;102205.81;5029872;28;49940;-68
2022/05/01 06:50:34;;;;;;;;;23.25;21.50;;;;;13.29;50.71;102222.28;5033797;28;49711;-66
2022/05/01 06:52:59;;;;;;;;;31.75;29.50;;;;;13.17;50.58;102193.72;5033673;28;50558;-66
2022/05/01 06:55:25;;;;;;;;;27.00;25.25;;;;;13.35;50.16;102221.59;5030707;28;49862;-67
2022/05/01 06:57:54;;;;;;;;;32.50;30.75;;;;;13.15;50.57;102205.97;5033800;28;49821;-65
2022/05/01 07:00:20;;;;;;;;;34.75;31.50;;;;;13.21;50.89;102225.50;5030736;28;50006;-67
2022/05/01 07:02:50;;;;;;;;;31.00;30.75;;;;;13.03;50.86;102183.59;5028865;28;51026;-81
2022/05/01 07:05:18;;;;;;;;;32.50;30.00;;;;;13.37;50.61;102214.63;5012540;28;49937;-64
2022/05/01 07:07:44;;;;;;;;;27.75;26.50;;;;;13.49;50.07;102209.72;5030455;28;49879;-60
2022/05/01 07:10:10;;;;;;;;;31.50;30.75;;;;;13.40;50.45;102214.72;5030022;28;49897;-64
2022/05/01 07:12:36;;;;;;;;;28.75;28.00;;;;;13.46;50.48;102226.34;5029748;28;50324;-66
2022/05/01 07:15:01;;;;;;;;;30.00;27.00;;;;;13.27;50.14;102165.94;5030161;28;49766;-62
2022/05/01 07:17:27;;;;;;;;;28.25;26.25;;;;;13.55;50.19;102216.94;5030525;28;49851;-64
2022/05/01 07:19:53;;;;;;;;;32.75;28.00;;;;;13.39;50.58;102197.09;5030412;28;50506;-65
2022/05/01 07:22:18;;;;;;;;;34.75;28.50;;;;;13.49;50.65;102196.53;5030158;28;50988;-67
2022/05/01 07:24:43;;;;;;;;;28.25;24.00;;;;;13.70;50.21;102201.56;5030101;28;49848;-66
2022/05/01 07:27:10;;;;;;;;;35.00;30.50;;;;;13.57;49.16;102200.31;5029796;28;49840;-65
2022/05/01 07:29:35;;;;;;;;;34.00;30.75;;;;;13.68;49.87;102212.09;5030270;28;50107;-62
2022/05/01 07:32:00;;;;;;;;;28.50;22.50;;;;;13.77;49.21;102213.22;5030042;28;50057;-68
2022/05/01 07:34:26;;;;;;;;;32.75;30.00;;;;;13.76;49.33;102204.41;5029448;28;49903;-66
2022/05/01 07:36:51;;;;;;;;;29.75;28.75;;;;;13.59;48.92;102185.41;5029655;28;49574;-66
2022/05/01 07:39:17;;;;;;;;;27.75;26.00;;;;;13.61;49.41;102190.78;5028876;28;49774;-66
2022/05/01 07:41:42;;;;;;;;;41.75;32.75;;;;;13.61;49.04;102204.84;5028904;28;51493;-71
2022/05/01 07:44:08;;;;;;;;;29.75;27.50;;;;;13.50;48.82;102189.50;5030015;28;49765;-72
2022/05/01 07:46:35;;;;;;;;;23.75;23.25;;;;;13.57;49.50;102179.22;5023293;28;49710;-66
2022/05/01 07:49:00;;;;;;;;;25.00;23.75;;;;;13.77;48.71;102205.31;5030067;28;49844;-66
2022/05/01 07:51:26;;;;;;;;;25.50;24.75;;;;;13.83;49.20;102202.88;5029966;28;49782;-73
2022/05/01 07:53:53;;;;;;;;;29.25;24.50;;;;;13.83;48.82;102195.84;5033332;28;49619;-72
2022/05/01 07:56:19;;;;;;;;;25.25;25.00;;;;;13.79;47.77;102182.50;5031107;28;49919;-65
2022/05/01 07:58:45;;;;;;;;;30.00;27.00;;;;;13.75;48.45;102203.53;5032082;28;49751;-66
2022/05/01 08:01:13;;;;;;;;;30.00;27.00;;;;;13.47;47.82;102153.38;5033075;28;50849;-68
2022/05/01 08:06:22;;;;;;;;;24.75;22.00;;;;;13.66;48.17;102168.94;5033150;28;49611;-63
2022/05/01 08:08:49;;;;;;;;;28.50;24.75;;;;;13.63;48.31;102155.66;5032635;28;49837;-66
2022/05/01 08:11:14;;;;;;;;;26.75;24.00;;;;;13.83;48.02;102185.28;5037812;28;49790;-69
2022/05/01 08:13:39;;;;;;;;;31.75;24.00;;;;;13.86;47.96;102155.44;5032669;28;49965;-65
2022/05/01 08:16:05;;;;;;;;;18.50;18.00;;;;;13.99;47.17;102165.50;5035555;28;49776;-63
2022/05/01 08:21:16;;;;;;;;;32.00;29.00;;;;;13.84;47.47;102147.47;5046598;28;49973;-69
2022/05/01 08:23:41;;;;;;;;;23.50;22.75;;;;;13.92;46.49;102148.59;5048484;28;49817;-71
2022/05/01 08:26:10;;;;;;;;;29.75;22.75;;;;;14.16;46.95;102176.56;5044917;28;49785;-68
2022/05/01 08:28:37;;;;;;;;;23.50;21.50;;;;;14.33;46.54;102167.38;5041543;28;49848;-73
2022/05/01 08:31:05;;;;;;;;;23.25;21.25;;;;;14.17;45.35;102171.31;5032127;28;49911;-74
2022/05/01 08:33:31;;;;;;;;;26.00;22.50;;;;;14.03;45.35;102138.34;5026705;28;49800;-75
2022/05/01 08:35:57;;;;;;;;;23.00;22.75;;;;;13.89;44.90;102122.09;5026239;28;50065;-72
2022/05/01 08:38:22;;;;;;;;;24.25;23.50;;;;;14.18;44.73;102170.47;5031688;28;49902;-69
2022/05/01 08:40:51;;;;;;;;;27.50;26.50;;;;;13.99;44.58;102125.91;5032821;28;49725;-70
2022/05/01 08:43:18;;;;;;;;;22.75;22.00;;;;;14.28;44.53;102153.13;5032738;28;49698;-69
2022/05/01 08:45:53;;;;;;;;;23.75;21.25;;;;;14.39;44.00;102161.38;5032738;28;49777;-69
2022/05/01 08:48:19;;;;;;;;;23.00;21.50;;;;;14.37;42.83;102152.47;5037113;28;49665;-63
2022/05/01 08:50:45;;;;;;;;;24.50;23.50;;;;;14.37;43.01;102144.56;5042365;28;50290;-65
2022/05/01 08:53:13;;;;;;;;;21.25;18.50;;;;;14.42;43.57;102138.56;5038208;28;49848;-62
2022/05/01 18:42:52;;;;;;;;;13.50;12.50;;;;;15.58;40.87;101821.19;5112150;27;49353;-72
2022/05/01 18:45:17;;;;;;;;;9.50;9.50;;;;;15.52;41.08;101799.00;5103320;27;49798;-77
2022/05/01 18:47:48;;;;;;;;;10.50;10.50;;;;;15.29;40.98;101736.03;5119725;27;49833;-79
2022/05/01 18:50:17;;;;;;;;;13.25;12.75;;;;;15.78;40.90;101802.13;5104070;27;49823;-78
2022/05/01 18:52:45;;;;;;;;;13.75;13.75;;;;;15.61;41.01;101772.72;5103153;27;50046;-74
2022/05/01 18:55:15;;;;;;;;;12.25;12.25;;;;;15.73;40.63;101791.47;5102221;27;49507;-73
2022/05/01 18:57:43;;;;;;;;;14.25;13.25;;;;;15.39;41.08;101737.06;5132282;27;49732;-76
2022/05/01 19:00:09;;;;;;;;;13.75;12.50;;;;;15.65;40.92;101798.41;5106066;27;50250;-79
2022/05/01 19:02:36;;;;;;;;;14.00;12.25;;;;;15.42;41.17;101756.50;5104865;27;49435;-78
2022/05/01 19:05:04;;;;;;;;;16.75;13.75;;;;;15.84;41.03;101834.00;5091804;27;50035;-80
2022/05/01 19:07:43;;;;;;;;;20.00;16.75;;;;;15.79;41.29;101820.69;5089050;27;50004;-77
2022/05/01 19:10:21;;;;;;;;;13.25;13.00;;;;;15.74;40.86;101832.97;5087030;27;50766;-78
2022/05/01 19:13:02;;;;;;;;;13.00;12.00;;;;;15.74;41.04;101828.56;5087116;27;49900;-72
2022/05/01 19:15:37;;;;;;;;;16.25;13.25;;;;;15.71;41.40;101841.72;5081351;27;49848;-71
2022/05/01 19:18:17;;;;;;;;;14.50;14.25;;;;;15.48;41.25;101819.25;5097594;27;49876;-72
2022/05/01 19:21:17;;;;;;;;;16.00;13.75;;;;;15.65;41.42;101848.69;5096154;27;49656;-71
2022/05/01 19:26:51;;;;;;;;;15.75;14.25;;;;;15.50;41.49;101832.50;5096444;27;50040;-66
2022/05/01 19:29:28;;;;;;;;;16.25;16.25;;;;;15.52;41.47;101836.94;5087997;27;49798;-66
2022/05/01 19:32:14;;;;;;;;;13.50;13.50;;;;;15.28;41.67;101803.03;5088821;27;50091;-70
2022/05/01 19:35:04;;;;;;;;;13.25;13.00;;;;;15.46;41.39;101836.88;5085054;27;49998;-65
2022/05/01 19:37:47;;;;;;;;;14.00;14.00;;;;;15.51;41.77;101843.09;5086490;27;49851;-62
2022/05/01 19:40:27;;;;;;;;;15.25;15.25;;;;;15.10;41.65;101774.47;5093240;27;50262;-63
2022/05/01 19:43:34;;;;;;;;;13.25;13.25;;;;;15.46;41.45;101839.50;5086350;27;49778;-63
2022/05/01 19:46:17;;;;;;;;;16.00;14.00;;;;;15.50;41.69;101848.38;5050698;27;49764;-64
2022/05/01 19:54:37;;;;;;;;;14.50;14.25;;;;;15.40;42.26;101850.84;5070980;28;50231;-62
2022/05/01 19:57:04;;;;;;;;;12.25;11.00;;;;;15.15;41.94;101817.78;5072944;27;50405;-65
2022/05/01 19:59:30;;;;;;;;;15.50;14.25;;;;;15.17;41.88;101833.69;5068414;27;49715;-63
2022/05/01 20:01:57;;;;;;;;;17.75;14.75;;;;;15.31;42.59;101866.56;5070217;27;49887;-61
2022/05/01 20:04:25;;;;;;;;;14.00;14.00;;;;;15.31;42.55;101871.84;5071499;27;50057;-63
2022/05/01 20:06:52;;;;;;;;;13.50;12.25;;;;;15.24;42.22;101863.75;5075099;27;49796;-63
2022/05/01 20:09:21;;;;;;;;;18.00;17.00;;;;;15.12;42.74;101846.81;5077145;27;49906;-62
2022/05/01 20:11:47;;;;;;;;;21.00;18.00;;;;;15.24;42.59;101869.94;5081198;27;49695;-62
2022/05/01 20:14:13;;;;;;;;;17.50;16.00;;;;;15.20;42.61;101869.88;5079061;27;50783;-62
2022/05/01 20:16:44;;;;;;;;;16.00;13.75;;;;;14.95;42.53;101823.53;5078699;27;49829;-62
2022/05/01 20:19:25;;;;;;;;;14.00;14.00;;;;;15.02;42.96;101836.00;5074265;27;49741;-63
2022/05/01 20:21:57;;;;;;;;;14.00;13.50;;;;;15.12;42.85;101865.31;5080515;27;49739;-62
2022/05/01 20:24:38;;;;;;;;;16.75;14.25;;;;;15.09;43.13;101857.31;5080115;27;51068;-62
2022/05/01 20:27:18;;;;;;;;;16.00;13.75;;;;;15.16;42.83;101858.34;5074116;27;49733;-62
2022/05/01 20:30:06;;;;;;;;;13.75;13.25;;;;;15.17;42.65;101860.13;5073192;27;49960;-75
2022/05/01 20:32:59;;;;;;;;;14.25;12.25;;;;;15.16;42.86;101858.34;5077538;27;49985;-67
2022/05/01 20:35:53;;;;;;;;;15.25;15.25;;;;;15.11;42.58;101855.59;5083384;27;52362;-66
2022/05/01 20:38:37;;;;;;;;;15.75;14.00;;;;;14.97;43.00;101841.22;5073061;27;49712;-66
2022/05/01 20:41:07;;;;;;;;;14.25;14.25;;;;;14.90;42.75;101834.03;5066456;28;49905;-66
2022/05/01 20:43:38;;;;;;;;;13.50;13.50;;;;;15.01;43.23;101866.84;5071432;27;49973;-66
2022/05/01 20:46:29;;;;;;;;;13.50;13.50;;;;;14.99;42.89;101865.06;5071970;28;50811;-66
2022/05/01 20:49:16;;;;;;;;;16.50;14.75;;;;;14.85;43.26;101836.56;5072035;28;49954;-67
2022/05/01 20:51:51;;;;;;;;;14.00;12.25;;;;;14.87;43.16;101842.78;5061590;28;49848;-67
2022/05/01 20:54:19;;;;;;;;;13.75;13.75;;;;;14.93;43.11;101842.00;5072737;27;49774;-66
2022/05/01 20:56:45;;;;;;;;;14.75;14.75;;;;;14.48;42.91;101755.66;5071683;28;49910;-67
2022/05/01 20:59:13;;;;;;;;;12.75;12.00;;;;;15.08;43.04;101855.53;5071812;27;49854;-67
2022/05/01 21:01:38;;;;;;;;;17.25;14.75;;;;;15.05;42.88;101844.88;5071921;28;49810;-67
2022/05/01 21:04:05;;;;;;;;;21.25;16.75;;;;;15.07;43.12;101848.47;5070988;28;50060;-67
2022/05/01 21:06:32;;;;;;;;;15.50;15.50;;;;;14.89;43.33;101817.28;5071326;28;50768;-66
2022/05/01 21:08:58;;;;;;;;;15.25;15.25;;;;;15.08;43.26;101847.63;5071689;28;49729;-67
2022/05/01 21:11:23;;;;;;;;;17.00;16.75;;;;;14.86;42.89;101817.22;5071691;28;49973;-66
2022/05/01 21:13:51;;;;;;;;;17.25;15.75;;;;;15.04;43.48;101855.44;5072838;27;50004;-66
2022/05/01 21:16:18;;;;;;;;;14.00;14.00;;;;;14.84;43.41;101828.59;5073323;28;50498;-66
2022/05/01 21:18:44;;;;;;;;;15.75;15.00;;;;;14.96;43.46;101839.44;5072194;27;49767;-66
2022/05/01 21:21:12;;;;;;;;;17.00;17.00;;;;;14.13;43.13;101702.06;5071398;28;50061;-66
2022/05/01 21:23:38;;;;;;;;;14.25;14.25;;;;;14.92;43.14;101844.63;5074002;27;49962;-66
2022/05/01 21:26:04;;;;;;;;;10.75;10.75;;;;;14.65;43.68;101806.19;5071309;27;49818;-66
2022/05/01 21:33:58;;;;;;;;;19.50;19.50;;;;;14.30;43.65;101748.19;5071490;28;49915;-67
2022/05/01 21:36:23;;;;;;;;;15.75;14.50;;;;;14.70;43.40;101809.84;5073535;27;50058;-66
2022/05/01 21:38:49;;;;;;;;;14.50;13.25;;;;;14.71;44.19;101818.66;5074958;27;49766;-67
2022/05/01 21:41:14;;;;;;;;;17.75;15.50;;;;;14.53;43.62;101790.09;5070953;28;49761;-67
2022/05/01 21:43:39;;;;;;;;;20.75;20.25;;;;;14.73;44.31;101838.06;5071489;27;49849;-66